Time;durP1;ratioP1;P1;durP2;ratioP2;P2;SDS_P1;SDS_P2;PMS_P1;PMS_P2;Temp;Humidity;BMP_temperature;BMP_pressure;BME280_temperature;BME280_humidity;BME280_pressure;Samples;Min_cycle;Max_cycle;Signal;HPM_P1;HPM_P2
2023/11/18 00:01:24;;;;;;;11.80;6.85;;;7.30;99.90;;;;;;5043295;28;20027;-93
2023/11/18 00:03:50;;;;;;;14.60;7.30;;;7.30;99.90;;;;;;5044394;28;20026;-92
2023/11/18 00:06:16;;;;;;;22.17;9.05;;;7.40;99.90;;;;;;5044005;28;20028;-92
2023/11/18 00:08:43;;;;;;;20.88;8.00;;;7.40;99.90;;;;;;5042654;28;20021;-93
2023/11/18 00:11:10;;;;;;;17.15;7.07;;;7.40;99.90;;;;;;5042569;28;20541;-94
2023/11/18 00:13:38;;;;;;;16.77;7.68;;;7.30;99.90;;;;;;5044582;28;20029;-92
2023/11/18 00:16:12;;;;;;;12.23;6.82;;;7.30;99.90;;;;;;5043318;28;20049;-93
2023/11/18 00:18:42;;;;;;;12.30;6.55;;;7.30;99.90;;;;;;5042323;28;20048;-93
2023/11/18 00:21:07;;;;;;;15.38;6.65;;;7.30;99.90;;;;;;5042297;28;20056;-92
2023/11/18 00:23:34;;;;;;;12.73;6.18;;;7.20;99.90;;;;;;5043929;28;20025;-92
2023/11/18 00:26:00;;;;;;;12.18;4.97;;;7.20;99.90;;;;;;5042719;28;20021;-92
2023/11/18 00:28:26;;;;;;;14.82;6.20;;;7.20;99.90;;;;;;5042422;28;20014;-92
2023/11/18 00:30:52;;;;;;;16.25;6.35;;;7.20;99.90;;;;;;5044282;28;20048;-91
2023/11/18 00:33:17;;;;;;;14.80;5.32;;;7.10;99.90;;;;;;5043449;28;20023;-91
2023/11/18 00:35:45;;;;;;;18.63;5.70;;;7.20;99.90;;;;;;5042388;28;20466;-92
2023/11/18 00:38:10;;;;;;;14.02;5.32;;;7.20;99.90;;;;;;5046623;28;20029;-92
2023/11/18 00:40:36;;;;;;;16.92;5.15;;;7.20;99.90;;;;;;5041737;28;20025;-92
2023/11/18 00:43:03;;;;;;;13.93;5.28;;;7.10;99.90;;;;;;5042641;28;20074;-92
2023/11/18 00:45:28;;;;;;;14.85;4.93;;;7.10;99.90;;;;;;5040902;28;20026;-92
2023/11/18 00:47:54;;;;;;;12.98;4.93;;;7.10;99.90;;;;;;5038454;28;20030;-91
2023/11/18 00:50:20;;;;;;;13.00;4.88;;;7.10;99.90;;;;;;5044117;28;20028;-89
2023/11/18 00:52:49;;;;;;;20.60;5.25;;;7.10;99.90;;;;;;5047172;28;20041;-92
2023/11/18 00:55:17;;;;;;;11.82;4.75;;;7.10;99.90;;;;;;5048313;28;20059;-92
2023/11/18 00:57:44;;;;;;;14.52;4.15;;;7.10;99.90;;;;;;5045095;28;20039;-91
2023/11/18 01:00:16;;;;;;;14.27;4.50;;;7.10;99.90;;;;;;5044452;28;20040;-91
2023/11/18 01:02:43;;;;;;;15.55;3.45;;;7.10;99.90;;;;;;5042113;28;20044;-92
2023/11/18 01:05:10;;;;;;;12.77;3.75;;;7.00;99.90;;;;;;5044109;28;20395;-93
2023/11/18 01:07:40;;;;;;;13.50;4.15;;;7.00;99.90;;;;;;5043295;28;20659;-90
2023/11/18 01:10:07;;;;;;;13.83;4.03;;;7.00;99.90;;;;;;5043452;28;20083;-91
2023/11/18 01:12:33;;;;;;;11.43;4.00;;;7.00;99.90;;;;;;5040870;28;20449;-91
2023/11/18 01:14:58;;;;;;;9.73;3.40;;;7.00;99.90;;;;;;5040470;28;20081;-92
2023/11/18 01:17:24;;;;;;;10.23;3.15;;;7.00;99.90;;;;;;5044115;28;20021;-93
2023/11/18 01:19:51;;;;;;;8.38;3.58;;;6.90;99.90;;;;;;5043950;28;20094;-92
2023/11/18 01:22:18;;;;;;;10.23;3.20;;;6.90;99.90;;;;;;5045312;28;20033;-91
2023/11/18 01:24:47;;;;;;;7.28;2.58;;;6.90;99.90;;;;;;5045257;28;20029;-92
2023/11/18 01:27:13;;;;;;;6.35;2.08;;;6.90;99.90;;;;;;5047559;28;20390;-92
2023/11/18 01:29:39;;;;;;;9.20;2.85;;;6.90;99.90;;;;;;5047378;28;20024;-90
2023/11/18 01:32:09;;;;;;;11.43;3.33;;;6.80;99.90;;;;;;5049038;28;20021;-91
2023/11/18 01:34:43;;;;;;;10.27;3.20;;;6.80;99.90;;;;;;5056535;28;20029;-91
2023/11/18 01:37:09;;;;;;;7.25;3.03;;;6.80;99.90;;;;;;5056162;28;20275;-91
2023/11/18 01:39:35;;;;;;;6.18;2.47;;;6.80;99.90;;;;;;5055832;28;20051;-90
2023/11/18 01:42:04;;;;;;;11.45;3.03;;;6.80;99.90;;;;;;5053896;28;20033;-90
2023/11/18 01:44:30;;;;;;;6.85;2.67;;;6.80;99.90;;;;;;5036241;28;20028;-90
2023/11/18 01:46:57;;;;;;;8.05;2.42;;;6.80;99.90;;;;;;5036193;28;20028;-91
2023/11/18 01:49:24;;;;;;;6.13;2.17;;;6.80;99.90;;;;;;5035778;28;20026;-91
2023/11/18 01:51:53;;;;;;;7.50;2.08;;;6.80;99.90;;;;;;5052147;28;20036;-91
2023/11/18 01:54:21;;;;;;;3.40;1.73;;;6.80;99.90;;;;;;5036210;28;20025;-90
2023/11/18 01:56:48;;;;;;;6.10;1.67;;;6.80;99.90;;;;;;5036205;28;20026;-90
2023/11/18 01:59:18;;;;;;;4.55;1.50;;;6.80;99.90;;;;;;5035750;28;20151;-90
2023/11/18 02:01:52;;;;;;;1.98;1.35;;;6.80;99.90;;;;;;5036581;28;20379;-90
2023/11/18 02:04:19;;;;;;;5.43;1.45;;;6.80;99.90;;;;;;5044684;28;20037;-91
2023/11/18 02:06:47;;;;;;;5.05;1.67;;;6.80;99.90;;;;;;5040861;28;20033;-90
2023/11/18 02:09:17;;;;;;;3.97;1.50;;;6.80;99.90;;;;;;5042011;28;20021;-91
2023/11/18 02:12:17;;;;;;;5.07;1.70;;;6.80;99.90;;;;;;5040880;28;20040;-90
2023/11/18 02:14:44;;;;;;;2.63;1.20;;;6.80;99.90;;;;;;5038154;28;20018;-90
2023/11/18 02:17:15;;;;;;;4.20;1.00;;;6.80;99.90;;;;;;5037565;28;20030;-91
2023/11/18 02:19:42;;;;;;;1.17;1.08;;;6.70;99.90;;;;;;5038380;28;20113;-90
2023/11/18 02:22:09;;;;;;;3.28;1.20;;;6.70;99.90;;;;;;5037049;28;20034;-90
2023/11/18 02:24:40;;;;;;;1.42;0.90;;;6.80;99.90;;;;;;5036719;28;20026;-92
2023/11/18 02:27:06;;;;;;;1.27;1.00;;;6.70;99.90;;;;;;5052832;28;20044;-90
2023/11/18 02:29:37;;;;;;;3.58;1.10;;;6.80;99.90;;;;;;5036184;28;20030;-91
2023/11/18 02:32:26;;;;;;;2.10;0.80;;;6.80;99.90;;;;;;5035231;28;20029;-90
2023/11/18 02:35:19;;;;;;;1.42;0.80;;;6.80;99.90;;;;;;5035382;28;20074;-90
2023/11/18 02:37:49;;;;;;;3.25;0.88;;;6.80;99.90;;;;;;5037547;28;20038;-89
2023/11/18 02:40:30;;;;;;;1.65;0.80;;;6.80;99.90;;;;;;5035861;28;20033;-91
2023/11/18 02:42:59;;;;;;;2.50;0.80;;;6.80;99.90;;;;;;5052550;28;20030;-90
2023/11/18 02:45:25;;;;;;;2.35;0.60;;;6.80;99.90;;;;;;5035229;28;20429;-91
2023/11/18 02:47:51;;;;;;;1.65;0.98;;;6.80;99.90;;;;;;5036103;28;20022;-90
2023/11/18 02:50:19;;;;;;;2.25;0.70;;;6.80;99.90;;;;;;5035917;28;20029;-91
2023/11/18 02:52:45;;;;;;;3.22;0.55;;;6.80;99.90;;;;;;5035846;28;20026;-91
2023/11/18 02:55:11;;;;;;;0.75;0.70;;;6.80;99.90;;;;;;5035509;28;20482;-90
2023/11/18 02:57:37;;;;;;;2.55;0.75;;;6.80;99.90;;;;;;5035307;28;20030;-90
2023/11/18 03:00:11;;;;;;;1.20;0.68;;;6.80;99.90;;;;;;5051897;28;20128;-90
2023/11/18 03:02:39;;;;;;;2.60;0.60;;;6.80;99.90;;;;;;5035493;28;20029;-90
2023/11/18 03:05:07;;;;;;;1.20;0.60;;;6.80;99.90;;;;;;5035562;28;20065;-90
2023/11/18 03:07:33;;;;;;;0.95;0.40;;;6.80;99.90;;;;;;5036780;28;20036;-90
2023/11/18 03:09:59;;;;;;;0.65;0.60;;;6.80;99.90;;;;;;5034904;28;20116;-89
2023/11/18 03:12:27;;;;;;;0.60;0.60;;;6.80;99.90;;;;;;5034994;28;20068;-90
2023/11/18 03:14:53;;;;;;;0.73;0.38;;;6.80;99.90;;;;;;5040210;28;20116;-89
2023/11/18 03:17:20;;;;;;;2.42;0.52;;;6.80;99.90;;;;;;5057929;28;20029;-90
2023/11/18 03:19:45;;;;;;;2.05;0.50;;;6.80;99.90;;;;;;5043268;28;20067;-91
2023/11/18 03:22:13;;;;;;;3.97;0.50;;;6.80;99.90;;;;;;5042683;28;20076;-90
2023/11/18 03:24:39;;;;;;;0.50;0.50;;;6.80;99.90;;;;;;5040118;28;20033;-90
2023/11/18 03:27:05;;;;;;;0.30;0.30;;;6.80;99.90;;;;;;5045619;28;20027;-92
2023/11/18 03:29:30;;;;;;;0.47;0.40;;;6.80;99.90;;;;;;5046123;28;20053;-91
2023/11/18 03:31:57;;;;;;;1.27;0.25;;;6.80;99.90;;;;;;5044251;28;20036;-90
2023/11/18 03:34:22;;;;;;;0.57;0.30;;;6.80;99.90;;;;;;5061468;28;20030;-92
2023/11/18 03:36:48;;;;;;;0.90;0.38;;;6.80;99.90;;;;;;5051297;28;20029;-92
2023/11/18 03:39:14;;;;;;;0.57;0.30;;;6.80;99.90;;;;;;5053541;28;20048;-92
2023/11/18 03:41:44;;;;;;;0.30;0.30;;;6.80;99.90;;;;;;5054656;28;20445;-91
2023/11/18 03:44:12;;;;;;;0.73;0.47;;;6.80;99.90;;;;;;5053906;28;20033;-91
2023/11/18 03:46:38;;;;;;;0.70;0.32;;;6.80;99.90;;;;;;5053184;28;20025;-91
2023/11/18 03:49:04;;;;;;;1.67;0.35;;;6.80;99.90;;;;;;5053065;28;20053;-91
2023/11/18 03:51:29;;;;;;;3.92;0.22;;;6.80;99.90;;;;;;5059113;28;20030;-91
2023/11/18 03:53:55;;;;;;;0.17;0.17;;;6.70;99.90;;;;;;5040922;28;20021;-91
2023/11/18 03:56:21;;;;;;;2.60;0.40;;;6.70;99.90;;;;;;5041634;28;20159;-92
2023/11/18 03:58:47;;;;;;;0.32;0.20;;;6.80;99.90;;;;;;5044816;28;20056;-92
2023/11/18 04:01:27;;;;;;;1.05;0.40;;;6.80;99.90;;;;;;5039694;28;20026;-91
2023/11/18 04:03:53;;;;;;;0.20;0.20;;;6.70;99.90;;;;;;5044291;28;20117;-91
2023/11/18 04:06:21;;;;;;;2.75;0.30;;;6.70;99.90;;;;;;5044429;28;20529;-91
2023/11/18 04:08:47;;;;;;;0.30;0.30;;;6.70;99.90;;;;;;5045043;28;20029;-91
2023/11/18 04:11:17;;;;;;;1.48;0.40;;;6.80;99.90;;;;;;5041988;28;20029;-91
2023/11/18 04:13:44;;;;;;;0.15;0.15;;;6.80;99.90;;;;;;5040438;28;20206;-91
2023/11/18 04:16:15;;;;;;;0.75;0.32;;;6.80;99.90;;;;;;5041266;28;20017;-91
2023/11/18 04:18:45;;;;;;;0.98;0.38;;;6.80;99.90;;;;;;5037685;28;20041;-91
2023/11/18 04:21:11;;;;;;;0.30;0.30;;;6.80;99.90;;;;;;5035066;28;20064;-91
2023/11/18 04:23:38;;;;;;;1.20;0.30;;;6.80;99.90;;;;;;5034989;28;20029;-92
2023/11/18 04:26:07;;;;;;;0.30;0.30;;;6.80;99.90;;;;;;5034436;28;20026;-91
2023/11/18 04:28:33;;;;;;;0.70;0.70;;;6.80;99.90;;;;;;5035487;28;20017;-92
2023/11/18 04:31:00;;;;;;;1.02;0.35;;;6.80;99.90;;;;;;5035543;28;20029;-91
2023/11/18 04:33:26;;;;;;;0.85;0.32;;;6.80;99.90;;;;;;5035495;28;20025;-92
2023/11/18 04:35:52;;;;;;;0.30;0.30;;;6.90;99.90;;;;;;5035901;28;20025;-92
2023/11/18 04:38:21;;;;;;;0.40;0.40;;;6.80;99.90;;;;;;5038958;28;20040;-92
2023/11/18 04:40:47;;;;;;;1.15;1.02;;;6.90;99.90;;;;;;5035529;28;20509;-92
2023/11/18 04:43:13;;;;;;;1.08;0.47;;;6.90;99.90;;;;;;5035130;28;20029;-92
2023/11/18 04:45:39;;;;;;;0.60;0.52;;;6.90;99.90;;;;;;5034706;28;20514;-92
2023/11/18 04:48:05;;;;;;;1.70;0.50;;;6.90;99.90;;;;;;5034175;28;20032;-92
2023/11/18 04:50:34;;;;;;;0.50;0.50;;;6.90;99.90;;;;;;5033968;28;20029;-92
2023/11/18 04:53:00;;;;;;;0.60;0.50;;;7.00;99.90;;;;;;5033792;28;20021;-91
2023/11/18 04:55:26;;;;;;;0.40;0.40;;;7.00;99.90;;;;;;5033821;28;20037;-92
2023/11/18 04:57:52;;;;;;;0.30;0.30;;;7.00;99.90;;;;;;5034059;28;20029;-91
2023/11/18 05:00:19;;;;;;;0.70;0.55;;;7.00;99.90;;;;;;5033778;28;20190;-92
2023/11/18 05:02:48;;;;;;;0.40;0.40;;;7.00;99.90;;;;;;5033551;28;20470;-90
2023/11/18 05:05:18;;;;;;;0.40;0.40;;;7.00;99.90;;;;;;5033358;28;20057;-92
2023/11/18 05:07:43;;;;;;;0.43;0.43;;;7.10;99.90;;;;;;5033720;28;20027;-91
2023/11/18 05:10:10;;;;;;;0.82;0.60;;;7.10;99.90;;;;;;5034778;28;20112;-92
2023/11/18 05:12:39;;;;;;;0.50;0.50;;;7.10;99.90;;;;;;5033906;28;20034;-91
2023/11/18 05:15:07;;;;;;;0.32;0.30;;;7.10;99.90;;;;;;5035007;28;20494;-91
2023/11/18 05:17:37;;;;;;;0.50;0.50;;;7.10;99.90;;;;;;5034112;28;20437;-91
2023/11/18 05:20:04;;;;;;;0.50;0.50;;;7.10;99.90;;;;;;5051634;28;20120;-91
2023/11/18 05:22:30;;;;;;;0.50;0.50;;;7.20;99.90;;;;;;5052732;28;20045;-91
2023/11/18 05:24:57;;;;;;;0.85;0.60;;;7.20;99.90;;;;;;5050884;28;20496;-91
2023/11/18 05:27:23;;;;;;;0.60;0.60;;;7.20;99.90;;;;;;5049042;28;20097;-92
2023/11/18 05:29:54;;;;;;;1.35;0.65;;;7.20;99.90;;;;;;5044043;28;20052;-92
2023/11/18 05:32:23;;;;;;;0.73;0.50;;;7.20;99.90;;;;;;5046272;28;20021;-91
2023/11/18 05:34:53;;;;;;;0.93;0.60;;;7.20;99.90;;;;;;5045616;28;20025;-92
2023/11/18 05:37:19;;;;;;;1.52;0.60;;;7.30;99.90;;;;;;5042721;28;20408;-91
2023/11/18 05:39:45;;;;;;;3.67;0.70;;;7.30;99.90;;;;;;5046681;28;20132;-93
2023/11/18 05:42:11;;;;;;;0.70;0.60;;;7.30;99.90;;;;;;5041866;28;20112;-91
2023/11/18 05:44:39;;;;;;;0.60;0.60;;;7.30;99.90;;;;;;5040905;28;20078;-93
2023/11/18 05:47:06;;;;;;;0.40;0.40;;;7.30;99.90;;;;;;5041349;28;20079;-92
2023/11/18 05:49:35;;;;;;;0.40;0.40;;;7.40;99.90;;;;;;5042582;28;20024;-93
2023/11/18 05:52:00;;;;;;;0.52;0.52;;;7.40;99.90;;;;;;5042100;28;20083;-92
2023/11/18 05:54:26;;;;;;;0.40;0.40;;;7.40;99.90;;;;;;5045942;28;20025;-91
2023/11/18 05:56:53;;;;;;;0.50;0.38;;;7.40;99.90;;;;;;5042574;28;20021;-91
2023/11/18 05:59:19;;;;;;;0.43;0.40;;;7.50;99.90;;;;;;5041840;28;20069;-93
2023/11/18 06:01:47;;;;;;;0.30;0.30;;;7.50;99.90;;;;;;5042210;28;20029;-92
2023/11/18 06:04:13;;;;;;;0.40;0.40;;;7.50;99.90;;;;;;5050699;28;20028;-93
2023/11/18 06:06:39;;;;;;;1.02;0.30;;;7.50;99.90;;;;;;5050341;28;20025;-92
2023/11/18 06:09:08;;;;;;;0.10;0.10;;;7.60;99.90;;;;;;5036644;28;20382;-91
2023/11/18 06:11:34;;;;;;;0.28;0.28;;;7.60;99.90;;;;;;5036854;28;20459;-91
2023/11/18 06:14:01;;;;;;;0.38;0.30;;;7.60;99.90;;;;;;5036737;28;20108;-91
2023/11/18 06:16:27;;;;;;;0.10;0.10;;;7.60;99.90;;;;;;5036609;28;20040;-92
2023/11/18 06:18:58;;;;;;;0.20;0.20;;;7.70;99.90;;;;;;5036180;28;20037;-91
2023/11/18 06:21:30;;;;;;;0.88;0.57;;;7.70;99.90;;;;;;5035987;28;20021;-92
2023/11/18 06:23:56;;;;;;;0.10;0.10;;;7.70;99.90;;;;;;5036286;28;20033;-91
2023/11/18 06:26:24;;;;;;;0.52;0.30;;;7.80;99.90;;;;;;5036272;28;20029;-91
2023/11/18 06:28:50;;;;;;;0.50;0.38;;;7.80;99.90;;;;;;5036989;28;20029;-91
2023/11/18 06:31:15;;;;;;;0.52;0.40;;;7.90;99.90;;;;;;5037457;28;20466;-91
2023/11/18 06:33:42;;;;;;;0.63;0.60;;;7.90;99.90;;;;;;5035389;28;20033;-92
2023/11/18 06:36:14;;;;;;;0.60;0.50;;;8.00;99.90;;;;;;5035640;28;20053;-91
2023/11/18 06:38:41;;;;;;;0.50;0.50;;;8.00;99.90;;;;;;5035559;28;20049;-91
2023/11/18 06:41:15;;;;;;;0.70;0.70;;;8.00;99.90;;;;;;5035550;28;20025;-91
2023/11/18 06:43:59;;;;;;;1.85;0.98;;;8.10;99.90;;;;;;5036738;28;20471;-92
2023/11/18 06:46:33;;;;;;;0.60;0.60;;;8.10;99.90;;;;;;5035485;28;20045;-91
2023/11/18 06:49:03;;;;;;;1.17;0.40;;;8.10;99.90;;;;;;5036425;28;20038;-90
2023/11/18 06:51:29;;;;;;;1.88;1.00;;;8.10;99.90;;;;;;5035488;28;20059;-90
2023/11/18 06:53:55;;;;;;;1.23;0.93;;;8.20;99.90;;;;;;5036350;28;20040;-90
2023/11/18 06:56:21;;;;;;;1.70;1.20;;;8.10;99.90;;;;;;5035652;28;20026;-91
2023/11/18 06:58:47;;;;;;;1.92;1.13;;;8.20;99.90;;;;;;5035354;28;20050;-90
2023/11/18 07:01:14;;;;;;;1.80;1.40;;;8.20;99.90;;;;;;5035519;28;20032;-91
2023/11/18 07:03:42;;;;;;;1.48;1.08;;;8.20;99.90;;;;;;5035291;28;20391;-91
2023/11/18 07:06:09;;;;;;;1.05;0.95;;;8.20;99.90;;;;;;5049451;28;20088;-90
2023/11/18 07:08:39;;;;;;;2.92;1.80;;;8.20;99.90;;;;;;5047926;28;20078;-92
2023/11/18 07:11:05;;;;;;;2.35;1.45;;;8.20;99.90;;;;;;5047783;28;20029;-91
2023/11/18 07:13:34;;;;;;;3.38;1.92;;;8.30;99.90;;;;;;5046416;28;20530;-91
2023/11/18 07:16:02;;;;;;;2.78;1.48;;;8.30;99.90;;;;;;5044335;28;20033;-92
2023/11/18 07:18:30;;;;;;;1.20;0.98;;;8.40;99.90;;;;;;5045569;28;20037;-90
2023/11/18 07:20:58;;;;;;;2.30;1.80;;;8.40;99.90;;;;;;5035348;28;20036;-92
2023/11/18 07:23:24;;;;;;;3.30;1.60;;;8.40;99.90;;;;;;5052289;28;20017;-91
2023/11/18 07:25:49;;;;;;;2.22;1.65;;;8.40;99.90;;;;;;5041556;28;20033;-91
2023/11/18 07:28:15;;;;;;;2.53;1.65;;;8.50;99.90;;;;;;5043190;28;20032;-91
2023/11/18 07:30:47;;;;;;;3.03;1.95;;;8.50;99.90;;;;;;5037678;28;20097;-90
2023/11/18 07:33:14;;;;;;;1.98;1.52;;;8.50;99.90;;;;;;5051059;28;20025;-90
2023/11/18 07:35:40;;;;;;;3.33;1.83;;;8.60;99.90;;;;;;5048433;28;20026;-92
2023/11/18 07:38:07;;;;;;;3.15;1.80;;;8.60;99.90;;;;;;5038164;28;20025;-90
2023/11/18 07:40:33;;;;;;;2.90;2.03;;;8.60;99.90;;;;;;5044670;28;20032;-91
2023/11/18 07:43:01;;;;;;;4.72;1.95;;;8.70;99.90;;;;;;5034098;28;20071;-90
2023/11/18 07:45:28;;;;;;;3.78;1.90;;;8.70;99.90;;;;;;5041133;28;20032;-90
2023/11/18 07:48:00;;;;;;;4.18;2.42;;;8.70;99.90;;;;;;5045019;28;20120;-91
2023/11/18 07:50:26;;;;;;;3.88;2.30;;;8.80;99.90;;;;;;5040795;28;20029;-91
2023/11/18 07:52:52;;;;;;;2.80;2.00;;;8.80;99.90;;;;;;5069386;28;20078;-91
2023/11/18 07:55:18;;;;;;;2.47;1.60;;;8.90;99.90;;;;;;5073669;28;20020;-90
2023/11/18 07:57:44;;;;;;;3.15;2.17;;;8.90;99.90;;;;;;5067009;28;20055;-91
2023/11/18 08:00:15;;;;;;;3.40;2.08;;;8.90;99.90;;;;;;5049264;28;20053;-91
2023/11/18 08:02:40;;;;;;;;;;;9.00;99.90;;;;;;5043364;28;20030;-92
2023/11/18 08:05:19;;;;;;;6.55;2.00;;;9.10;99.90;;;;;;5037447;28;20346;-94
2023/11/18 08:07:52;;;;;;;3.00;1.80;;;9.10;99.90;;;;;;5077065;28;20051;-91
2023/11/18 08:10:18;;;;;;;2.33;1.67;;;9.20;99.90;;;;;;5049254;28;20160;-92
2023/11/18 08:12:45;;;;;;;3.17;2.10;;;9.20;99.90;;;;;;5050530;28;20021;-92
2023/11/18 08:15:11;;;;;;;2.80;1.88;;;9.30;99.90;;;;;;5057230;28;20033;-91
2023/11/18 08:17:37;;;;;;;4.20;2.28;;;9.30;99.90;;;;;;5073726;28;20021;-92
2023/11/18 08:20:13;;;;;;;4.28;2.53;;;9.40;99.90;;;;;;5063013;28;20040;-91
2023/11/18 08:22:41;;;;;;;2.80;2.03;;;9.40;99.90;;;;;;5052170;28;20036;-92
2023/11/18 08:25:08;;;;;;;3.85;2.25;;;9.50;99.90;;;;;;5055229;28;20032;-92
2023/11/18 08:27:35;;;;;;;5.07;3.40;;;9.50;99.90;;;;;;5054864;28;20115;-92
2023/11/18 08:30:05;;;;;;;4.78;2.90;;;9.50;99.90;;;;;;5056941;28;20025;-93
2023/11/18 08:32:31;;;;;;;6.32;3.00;;;9.60;99.90;;;;;;5064098;28;20017;-92
2023/11/18 08:34:57;;;;;;;3.58;2.35;;;9.60;99.90;;;;;;5063289;28;20140;-93
2023/11/18 08:37:22;;;;;;;7.20;3.10;;;9.60;99.90;;;;;;5060984;28;20068;-90
2023/11/18 08:39:48;;;;;;;6.25;3.72;;;9.60;99.90;;;;;;5057616;28;20049;-92
2023/11/18 08:42:14;;;;;;;6.55;3.75;;;9.60;99.90;;;;;;5054683;28;20033;-93
2023/11/18 08:44:40;;;;;;;5.78;3.17;;;9.70;99.90;;;;;;5049700;28;20017;-92
2023/11/18 08:47:08;;;;;;;5.10;3.13;;;9.70;99.90;;;;;;5042360;28;20033;-92
2023/11/18 08:49:34;;;;;;;7.43;3.28;;;9.70;99.90;;;;;;5045675;28;20020;-92
2023/11/18 08:52:01;;;;;;;6.30;3.25;;;9.70;99.90;;;;;;5041105;28;20029;-92
2023/11/18 08:54:36;;;;;;;7.88;3.75;;;9.70;99.90;;;;;;5051184;28;20075;-90
2023/11/18 08:57:03;;;;;;;7.70;3.45;;;9.80;99.90;;;;;;5051043;28;20589;-92
2023/11/18 08:59:30;;;;;;;7.63;3.42;;;9.80;99.90;;;;;;5050733;28;20045;-92
2023/11/18 09:01:58;;;;;;;6.30;3.33;;;9.80;99.90;;;;;;5051518;28;20113;-92
2023/11/18 09:04:25;;;;;;;6.15;3.25;;;9.80;99.90;;;;;;5053275;28;20043;-91
2023/11/18 09:06:54;;;;;;;5.28;2.97;;;9.80;99.90;;;;;;5051885;28;20019;-92
2023/11/18 09:09:29;;;;;;;6.38;2.65;;;9.90;99.90;;;;;;5050647;28;20067;-92
2023/11/18 09:11:56;;;;;;;5.68;2.72;;;9.90;99.90;;;;;;5050380;28;20044;-92
2023/11/18 09:14:24;;;;;;;5.32;3.20;;;10.00;99.90;;;;;;5050433;28;20175;-93
2023/11/18 09:16:51;;;;;;;7.63;3.42;;;10.00;99.90;;;;;;5050214;28;20029;-94
2023/11/18 09:19:21;;;;;;;6.97;3.72;;;9.90;99.90;;;;;;5052493;28;20041;-93
2023/11/18 09:21:48;;;;;;;7.28;3.15;;;10.00;99.90;;;;;;5053653;28;20032;-89
2023/11/18 09:24:19;;;;;;;5.72;3.35;;;10.10;99.90;;;;;;5054230;28;20036;-92
2023/11/18 09:26:47;;;;;;;6.53;3.70;;;10.10;99.90;;;;;;5157210;22;20637;-91
2023/11/18 09:29:17;;;;;;;6.85;3.28;;;10.20;99.90;;;;;;5050011;28;20028;-91
2023/11/18 09:31:48;;;;;;;7.18;3.88;;;10.20;99.90;;;;;;5048400;28;20021;-92
2023/11/18 09:34:17;;;;;;;7.50;4.18;;;10.30;99.90;;;;;;5049507;28;20448;-91
2023/11/18 09:36:48;;;;;;;7.47;3.97;;;10.30;99.90;;;;;;5049393;28;20040;-91
2023/11/18 09:39:29;;;;;;;5.82;3.45;;;10.40;99.90;;;;;;5050213;28;20032;-92
2023/11/18 09:41:58;;;;;;;6.22;3.80;;;10.50;99.90;;;;;;5052529;28;20485;-91
2023/11/18 09:44:26;;;;;;;11.13;3.85;;;10.60;99.90;;;;;;5053355;28;20040;-92
2023/11/18 09:47:04;;;;;;;7.18;3.33;;;10.70;99.90;;;;;;5070597;28;20025;-92
2023/11/18 09:49:38;;;;;;;4.60;2.95;;;10.80;99.90;;;;;;5056410;28;20056;-92
2023/11/18 09:52:06;;;;;;;4.95;3.00;;;10.90;99.90;;;;;;5056902;28;20484;-91
2023/11/18 09:55:14;;;;;;;6.22;3.47;;;11.00;99.90;;;;;;5055462;28;20029;-92
2023/11/18 09:57:43;;;;;;;3.60;2.45;;;11.10;99.90;;;;;;5055038;28;20029;-91
2023/11/18 10:00:21;;;;;;;6.45;3.20;;;11.20;99.90;;;;;;5052559;28;20044;-92
2023/11/18 10:02:52;;;;;;;4.97;2.75;;;11.30;99.90;;;;;;5054316;28;20021;-91
2023/11/18 10:05:26;;;;;;;4.68;3.08;;;11.30;99.90;;;;;;5056904;28;20028;-91
2023/11/18 10:07:52;;;;;;;2.92;2.13;;;11.40;99.90;;;;;;5056047;28;20021;-91
2023/11/18 10:10:21;;;;;;;2.63;1.98;;;11.50;99.90;;;;;;5057828;28;20110;-92
2023/11/18 10:13:21;;;;;;;3.75;2.28;;;11.50;99.90;;;;;;5059047;28;20021;-91
2023/11/18 10:15:35;;;;;;;4.50;2.70;;;11.70;99.90;;;;;;5055754;28;20508;-91
2023/11/18 10:18:15;;;;;;;4.43;2.15;;;11.70;99.90;;;;;;5063307;28;20060;-92
2023/11/18 10:20:50;;;;;;;3.25;1.83;;;11.90;99.90;;;;;;5060212;28;20052;-92
2023/11/18 10:23:20;;;;;;;5.28;1.88;;;11.90;99.90;;;;;;5055403;28;20116;-92
2023/11/18 10:25:48;;;;;;;2.42;1.50;;;12.00;99.90;;;;;;5057663;28;20098;-92
2023/11/18 10:28:38;;;;;;;1.83;1.50;;;12.10;99.90;;;;;;5057332;28;20049;-92
2023/11/18 10:31:06;;;;;;;3.47;1.35;;;12.10;99.90;;;;;;5055153;28;20025;-90
2023/11/18 10:33:37;;;;;;;3.90;1.65;;;12.20;99.90;;;;;;5056097;28;20137;-92
2023/11/18 10:36:04;;;;;;;1.70;1.05;;;12.30;99.90;;;;;;5054729;28;20784;-92
2023/11/18 10:38:47;;;;;;;1.10;0.98;;;12.30;99.90;;;;;;5051607;28;20052;-92
2023/11/18 10:41:13;;;;;;;1.40;1.05;;;12.40;99.90;;;;;;5052727;28;20554;-91
2023/11/18 10:43:41;;;;;;;3.30;1.17;;;12.40;99.90;;;;;;5057693;28;20024;-92
2023/11/18 10:46:14;;;;;;;1.42;1.10;;;12.50;99.90;;;;;;5060987;28;20102;-92
2023/11/18 10:48:48;;;;;;;2.17;1.45;;;12.50;99.90;;;;;;5055718;28;20017;-92
2023/11/18 10:51:16;;;;;;;1.83;1.02;;;12.60;99.90;;;;;;5051459;28;20021;-92
2023/11/18 10:54:00;;;;;;;3.85;1.17;;;12.60;99.90;;;;;;5055791;28;20562;-92
2023/11/18 10:56:28;;;;;;;1.75;1.50;;;12.70;99.90;;;;;;5053481;28;20117;-93
2023/11/18 10:58:58;;;;;;;3.30;1.70;;;12.70;99.90;;;;;;5053767;28;20028;-92
2023/11/18 11:01:31;;;;;;;2.00;1.77;;;12.80;99.90;;;;;;5053923;28;20044;-92
2023/11/18 11:03:58;;;;;;;4.00;1.75;;;12.80;99.90;;;;;;5049220;28;20112;-91
2023/11/18 11:06:25;;;;;;;1.67;1.50;;;12.80;99.90;;;;;;5054292;28;20110;-92
2023/11/18 11:08:53;;;;;;;1.75;1.30;;;12.90;99.90;;;;;;5048835;28;20021;-92
2023/11/18 11:11:25;;;;;;;4.03;1.85;;;12.90;99.90;;;;;;5053603;28;20024;-92
2023/11/18 11:14:02;;;;;;;2.75;1.70;;;12.90;99.90;;;;;;5051739;28;20025;-93
2023/11/18 11:16:51;;;;;;;4.78;1.85;;;12.90;99.90;;;;;;5069254;28;20021;-92
2023/11/18 11:19:26;;;;;;;2.42;1.60;;;13.10;99.90;;;;;;5050756;28;20053;-92
2023/11/18 11:22:27;;;;;;;1.58;1.00;;;13.50;99.90;;;;;;5053479;28;20123;-93
2023/11/18 11:25:02;;;;;;;3.08;1.15;;;14.00;99.90;;;;;;5053155;28;20033;-93
2023/11/18 11:28:02;;;;;;;5.75;1.00;;;14.40;99.90;;;;;;5068997;28;20132;-93
2023/11/18 11:31:00;;;;;;;4.05;1.40;;;14.80;99.90;;;;;;5057396;28;20055;-92
2023/11/18 11:33:40;;;;;;;4.32;0.90;;;15.10;99.90;;;;;;4981023;28;20035;-92
2023/11/18 11:36:11;;;;;;;6.30;1.02;;;15.30;99.90;;;;;;4978134;28;20052;-93
2023/11/18 11:38:38;;;;;;;2.20;0.65;;;15.30;99.90;;;;;;4962889;28;20023;-92
2023/11/18 11:41:08;;;;;;;5.28;1.10;;;15.40;99.90;;;;;;4977276;28;20022;-93
2023/11/18 11:43:34;;;;;;;5.25;2.03;;;15.60;99.90;;;;;;4958947;28;20066;-93
2023/11/18 11:46:09;;;;;;;3.88;1.02;;;15.70;99.90;;;;;;4959016;28;20073;-92
2023/11/18 11:48:36;;;;;;;4.85;0.93;;;16.00;99.90;;;;;;4958933;28;20054;-92
2023/11/18 11:51:05;;;;;;;3.38;1.08;;;16.20;99.90;;;;;;4958457;28;20027;-91
2023/11/18 11:53:38;;;;;;;4.78;1.30;;;16.40;99.90;;;;;;4962216;28;20037;-91
2023/11/18 11:56:06;;;;;;;4.68;1.10;;;16.50;99.90;;;;;;4959087;28;20038;-93
2023/11/18 11:58:38;;;;;;;5.97;1.05;;;16.60;99.90;;;;;;4957942;28;20054;-91
2023/11/18 12:01:33;;;;;;;4.75;0.73;;;16.70;99.90;;;;;;4957449;28;20022;-91
2023/11/18 12:04:06;;;;;;;5.88;1.15;;;16.80;99.90;;;;;;4972177;28;20571;-92
2023/11/18 12:06:40;;;;;;;4.50;1.05;;;16.80;99.90;;;;;;4951690;28;20031;-91
2023/11/18 12:09:09;;;;;;;7.35;1.27;;;16.60;99.90;;;;;;5017487;28;20478;-92
2023/11/18 12:11:46;;;;;;;6.68;1.58;;;16.40;99.90;;;;;;5054480;28;20098;-92
2023/11/18 12:17:06;;;;;;;4.47;0.80;;;15.80;99.90;;;;;;5051009;28;20051;-89
2023/11/18 12:19:50;;;;;;;4.63;0.80;;;15.50;99.90;;;;;;5051854;28;20017;-90
2023/11/18 12:22:26;;;;;;;5.57;1.65;;;15.30;99.90;;;;;;5068916;28;20033;-91
2023/11/18 12:24:58;;;;;;;3.53;0.75;;;15.10;99.90;;;;;;5048252;28;20075;-92
2023/11/18 12:27:43;;;;;;;5.90;1.20;;;14.90;99.90;;;;;;5050302;28;20098;-91
2023/11/18 12:30:15;;;;;;;8.02;1.30;;;14.80;99.90;;;;;;5051392;28;20081;-92
2023/11/18 12:33:09;;;;;;;4.47;1.73;;;14.60;99.90;;;;;;5051169;28;20077;-91
2023/11/18 12:35:41;;;;;;;5.03;1.13;;;14.50;99.90;;;;;;5050727;28;20029;-91
2023/11/18 12:38:45;;;;;;;6.20;1.08;;;14.50;99.90;;;;;;5052388;28;20021;-92
2023/11/18 12:41:19;;;;;;;4.35;1.20;;;14.50;99.90;;;;;;5056163;28;20029;-92
2023/11/18 12:43:57;;;;;;;3.88;1.23;;;14.80;99.90;;;;;;5067387;28;20033;-91
2023/11/18 12:46:44;;;;;;;7.47;1.23;;;14.90;99.90;;;;;;5069847;28;20459;-91
2023/11/18 12:49:15;;;;;;;5.55;1.35;;;15.20;99.90;;;;;;5036190;28;20037;-90
2023/11/18 12:51:43;;;;;;;7.43;1.17;;;15.40;99.90;;;;;;5032642;28;20049;-90
2023/11/18 12:54:11;;;;;;;4.85;1.10;;;15.40;99.90;;;;;;5052247;28;20057;-91
2023/11/18 12:56:38;;;;;;;6.53;1.48;;;15.30;99.90;;;;;;5051922;28;20021;-91
2023/11/18 12:59:06;;;;;;;10.68;2.03;;;15.20;99.90;;;;;;5066404;28;20032;-91
2023/11/18 13:01:36;;;;;;;4.57;1.15;;;15.00;99.90;;;;;;5052088;28;20025;-92
2023/11/18 13:04:40;;;;;;;5.35;1.35;;;14.80;99.90;;;;;;5053554;28;20025;-92
2023/11/18 13:07:08;;;;;;;8.07;1.50;;;14.60;99.90;;;;;;5048430;28;20028;-91
2023/11/18 13:09:35;;;;;;;4.38;0.88;;;14.50;99.90;;;;;;5052092;28;20056;-92